createdAt,value
2024-02-15T00:08:13.209Z,5.43
2024-02-15T00:13:14.241Z,5.32
2024-02-15T00:18:16.576Z,6.18
2024-02-15T00:23:18.015Z,6.05
2024-02-15T00:28:18.853Z,7.55
2024-02-15T00:33:21.471Z,11.13
2024-02-15T00:38:22.855Z,15.70
2024-02-15T00:43:23.973Z,17.60
2024-02-15T00:48:30.045Z,17.05
2024-02-15T00:53:30.914Z,14.90
2024-02-15T00:58:32.441Z,10.60
2024-02-15T01:03:35.862Z,10.05
2024-02-15T01:08:37.969Z,7.82
2024-02-15T01:13:38.785Z,6.63
2024-02-15T01:18:41.267Z,6.95
2024-02-15T01:23:42.651Z,6.18
2024-02-15T01:28:44.476Z,8.05
2024-02-15T01:33:47.784Z,6.88
2024-02-15T01:38:48.663Z,7.57
2024-02-15T01:43:51.143Z,7.13
2024-02-15T01:48:53.683Z,7.50
2024-02-15T01:53:55.666Z,7.55
2024-02-15T01:58:56.493Z,7.97
2024-02-15T02:03:59.043Z,8.07
2024-02-15T02:09:00.204Z,8.05
2024-02-15T02:14:01.033Z,7.68
2024-02-15T02:19:06.036Z,7.85
2024-02-15T02:24:15.059Z,8.38
2024-02-15T02:29:18.670Z,7.95
2024-02-15T02:34:20.939Z,8.20
2024-02-15T02:39:24.263Z,7.63
2024-02-15T02:44:26.855Z,7.95
2024-02-15T02:49:27.833Z,7.38
2024-02-15T02:54:30.454Z,7.60
2024-02-15T02:59:32.542Z,6.72
2024-02-15T03:04:34.865Z,6.90
2024-02-15T03:09:36.720Z,6.65
2024-02-15T03:14:38.785Z,6.78
2024-02-15T03:19:39.620Z,6.80
2024-02-15T03:24:41.145Z,7.30
2024-02-15T03:29:43.908Z,6.88
2024-02-15T03:34:44.843Z,6.43
2024-02-15T03:39:45.803Z,6.22
2024-02-15T03:44:49.085Z,6.43
2024-02-15T03:49:49.886Z,6.10
2024-02-15T03:54:50.626Z,5.63
2024-02-15T03:59:54.073Z,5.95
2024-02-15T04:04:55.950Z,6.05
2024-02-15T04:09:56.773Z,5.53
2024-02-15T04:15:05.844Z,6.38
2024-02-15T04:20:07.825Z,7.00
2024-02-15T04:25:10.861Z,6.00
2024-02-15T04:30:13.830Z,5.53
2024-02-15T04:35:15.628Z,6.07
2024-02-15T04:40:19.366Z,6.25
2024-02-15T04:45:23.478Z,6.90
2024-02-15T04:50:24.241Z,6.20
2024-02-15T04:55:25.055Z,6.50
2024-02-15T05:00:27.738Z,6.00
2024-02-15T05:05:30.453Z,6.55
2024-02-15T05:10:31.242Z,6.68
2024-02-15T05:15:34.193Z,6.18
2024-02-15T05:20:35.699Z,6.18
2024-02-15T05:25:36.684Z,8.00
2024-02-15T05:30:40.571Z,5.93
2024-02-15T05:35:42.763Z,6.18
2024-02-15T05:40:44.078Z,6.63
2024-02-15T05:45:46.903Z,6.15
2024-02-15T05:50:47.842Z,6.88
2024-02-15T05:55:50.815Z,7.35
2024-02-15T06:00:54.162Z,6.97
2024-02-15T06:05:59.396Z,8.02
2024-02-15T06:11:00.588Z,7.43
2024-02-15T06:16:02.704Z,7.25
2024-02-15T06:21:03.712Z,8.93
2024-02-15T06:26:04.797Z,8.20
2024-02-15T06:31:24.875Z,8.52
2024-02-15T06:36:43.352Z,8.52
2024-02-15T06:41:44.099Z,9.02
2024-02-15T06:46:47.460Z,9.38
2024-02-15T06:51:50.553Z,9.88
2024-02-15T06:56:53.306Z,9.18
2024-02-15T07:01:56.568Z,10.18
2024-02-15T07:06:58.172Z,10.57
2024-02-15T07:11:59.409Z,10.85
2024-02-15T07:17:01.746Z,10.38
2024-02-15T07:22:23.579Z,9.60
2024-02-15T07:27:27.948Z,11.45
2024-02-15T07:32:30.217Z,11.15
2024-02-15T07:37:31.115Z,10.63
2024-02-15T07:42:32.071Z,11.40
2024-02-15T07:47:35.778Z,11.73
2024-02-15T07:52:36.560Z,11.55
2024-02-15T07:57:50.621Z,10.65
2024-02-15T08:02:55.819Z,9.90
2024-02-15T08:07:59.290Z,9.88
2024-02-15T08:13:00.352Z,8.73
2024-02-15T08:18:06.707Z,8.80
2024-02-15T08:23:07.824Z,9.07
2024-02-15T08:28:11.119Z,9.48
2024-02-15T08:33:13.317Z,9.60
2024-02-15T08:38:14.110Z,9.50
2024-02-15T08:43:14.900Z,9.50
2024-02-15T08:48:17.171Z,9.55
2024-02-15T08:53:20.155Z,8.88
2024-02-15T08:58:22.463Z,8.35
2024-02-15T09:03:24.684Z,7.90
2024-02-15T09:08:25.532Z,7.55
2024-02-15T09:13:26.357Z,7.55
2024-02-15T09:18:28.549Z,8.43
2024-02-15T09:23:29.354Z,7.65
2024-02-15T09:28:30.083Z,6.78
2024-02-15T09:33:32.376Z,6.93
2024-02-15T09:38:33.150Z,6.95
2024-02-15T09:43:33.905Z,6.85
2024-02-15T09:48:36.713Z,6.80
2024-02-15T09:53:37.811Z,6.57
2024-02-15T09:58:38.691Z,6.00
2024-02-15T10:03:42.273Z,7.18
2024-02-15T10:08:43.048Z,5.82
2024-02-15T10:13:45.957Z,7.05
2024-02-15T10:18:49.337Z,6.18
2024-02-15T10:24:07.846Z,6.05
2024-02-15T10:29:11.824Z,6.35
2024-02-15T10:34:16.367Z,6.57
2024-02-15T10:39:20.672Z,7.40
2024-02-15T10:44:23.401Z,6.10
2024-02-15T10:49:26.846Z,7.30
2024-02-15T10:54:43.713Z,7.22
2024-02-15T10:59:56.114Z,7.05
2024-02-15T11:05:04.903Z,6.97
2024-02-15T11:10:09.864Z,7.13
2024-02-15T11:15:13.217Z,7.25
2024-02-15T11:20:54.449Z,6.75
2024-02-15T11:25:57.258Z,7.00
2024-02-15T11:30:58.800Z,7.05
2024-02-15T11:36:11.350Z,6.50
2024-02-15T11:41:12.604Z,6.95
2024-02-15T11:46:15.208Z,7.20
2024-02-15T11:51:29.022Z,6.65
2024-02-15T11:56:30.006Z,7.60
2024-02-15T12:01:56.272Z,5.80
2024-02-15T12:07:18.501Z,8.00
2024-02-15T12:12:38.061Z,5.80
2024-02-15T12:17:56.519Z,5.30
2024-02-15T12:22:59.548Z,5.32
2024-02-15T12:28:02.993Z,5.40
2024-02-15T12:33:11.816Z,5.30
2024-02-15T12:38:17.810Z,6.80
2024-02-15T12:43:19.429Z,10.05
2024-02-15T12:48:21.072Z,5.40
2024-02-15T12:53:26.284Z,5.43
2024-02-15T12:58:27.729Z,3.70
2024-02-15T13:03:28.568Z,1.80
2024-02-15T13:08:30.640Z,1.40
2024-02-15T13:13:31.422Z,0.80
2024-02-15T13:18:32.426Z,0.80
2024-02-15T13:23:36.752Z,1.02
2024-02-15T13:28:37.548Z,0.88
2024-02-15T13:33:38.423Z,0.88
2024-02-15T13:38:40.606Z,1.55
2024-02-15T13:43:42.465Z,1.00
2024-02-15T13:48:45.061Z,0.50
2024-02-15T13:53:48.533Z,0.70
2024-02-15T13:58:49.524Z,1.20
2024-02-15T14:03:50.227Z,0.98
2024-02-15T14:08:52.593Z,0.63
2024-02-15T14:13:59.263Z,0.50
2024-02-15T14:19:00.554Z,0.60
2024-02-15T14:24:04.498Z,0.60
2024-02-15T14:29:06.656Z,0.70
2024-02-15T14:34:07.512Z,0.63
2024-02-15T14:39:10.886Z,0.73
2024-02-15T14:44:13.687Z,1.02
2024-02-15T14:49:14.406Z,1.20
2024-02-15T14:54:23.617Z,1.27
2024-02-15T14:59:24.876Z,2.50
2024-02-15T15:04:27.630Z,3.33
2024-02-15T15:09:47.353Z,3.40
2024-02-15T15:14:49.077Z,3.65
2024-02-15T15:19:49.962Z,4.55
2024-02-15T15:24:52.078Z,3.83
2024-02-15T15:29:52.846Z,4.60
2024-02-15T15:34:53.648Z,4.80
2024-02-15T15:39:57.373Z,5.65
2024-02-15T15:44:58.217Z,5.88
2024-02-15T15:50:00.074Z,6.20
2024-02-15T15:55:02.331Z,6.72
2024-02-15T16:00:03.964Z,6.22
2024-02-15T16:05:05.836Z,7.25
2024-02-15T16:10:09.476Z,7.70
2024-02-15T16:15:14.158Z,8.18
2024-02-15T16:20:15.805Z,9.27
2024-02-15T16:25:18.653Z,8.68
2024-02-15T16:30:19.844Z,9.07
2024-02-15T16:35:21.089Z,8.48
2024-02-15T16:40:24.079Z,8.23
2024-02-15T16:45:25.270Z,8.63
2024-02-15T16:50:26.536Z,8.63
2024-02-15T16:55:32.226Z,8.98
2024-02-15T17:00:34.120Z,8.50
2024-02-15T17:05:36.486Z,9.13
2024-02-15T17:10:39.822Z,8.13
2024-02-15T17:15:41.424Z,8.63
2024-02-15T17:20:42.169Z,8.20
2024-02-15T17:25:44.782Z,8.35
2024-02-15T17:30:46.618Z,9.38
2024-02-15T17:35:48.089Z,8.95
2024-02-15T17:40:50.918Z,15.55
2024-02-15T17:45:51.944Z,11.90
2024-02-15T17:50:52.909Z,9.95
2024-02-15T17:55:57.410Z,9.98
2024-02-15T18:00:58.223Z,10.63
2024-02-15T18:05:59.055Z,9.95
2024-02-15T18:11:01.611Z,9.50
2024-02-15T18:16:02.522Z,9.73
2024-02-15T18:21:03.339Z,10.23
2024-02-15T18:26:05.696Z,10.45
2024-02-15T18:31:09.926Z,10.88
2024-02-15T18:36:11.899Z,10.38
2024-02-15T18:41:13.932Z,11.57
2024-02-15T18:46:16.374Z,10.27
2024-02-15T18:51:18.217Z,15.98
2024-02-15T18:56:21.293Z,11.10
2024-02-15T19:01:24.495Z,10.40
2024-02-15T19:06:26.345Z,10.80
2024-02-15T19:11:28.531Z,11.77
2024-02-15T19:16:30.613Z,11.35
2024-02-15T19:21:31.544Z,11.70
2024-02-15T19:26:34.175Z,13.02
2024-02-15T19:31:37.527Z,15.27
2024-02-15T19:36:38.758Z,13.95
2024-02-15T19:41:42.495Z,14.20
2024-02-15T19:46:44.067Z,15.20
2024-02-15T19:51:45.545Z,15.30
2024-02-15T19:56:47.613Z,15.88
2024-02-15T20:01:48.459Z,16.30
2024-02-15T20:06:49.311Z,16.70
2024-02-15T20:11:51.485Z,15.88
2024-02-15T20:16:55.669Z,15.80
2024-02-15T20:21:56.596Z,17.25
2024-02-15T20:26:58.829Z,15.77
2024-02-15T20:32:00.447Z,17.13
2024-02-15T20:37:01.294Z,19.05
2024-02-15T20:42:04.858Z,17.35
2024-02-15T20:47:11.336Z,17.02
2024-02-15T20:52:12.256Z,18.63
2024-02-15T20:57:17.652Z,17.85
2024-02-15T21:02:21.266Z,18.10
2024-02-15T21:07:22.708Z,18.05
2024-02-15T21:12:25.461Z,17.05
2024-02-15T21:17:26.576Z,17.00
2024-02-15T21:22:30.724Z,17.50
2024-02-15T21:27:32.865Z,15.80
2024-02-15T21:32:33.686Z,16.73
2024-02-15T21:37:34.533Z,16.05
2024-02-15T21:42:36.569Z,17.35
2024-02-15T21:47:38.450Z,15.93
2024-02-15T21:52:39.293Z,16.23
2024-02-15T21:57:41.350Z,16.15
2024-02-15T22:02:42.242Z,16.80
2024-02-15T22:07:43.059Z,16.75
2024-02-15T22:12:45.068Z,16.30
2024-02-15T22:17:45.863Z,15.10
2024-02-15T22:22:46.661Z,14.23
2024-02-15T22:27:48.727Z,14.13
2024-02-15T22:32:49.910Z,13.93
2024-02-15T22:37:50.754Z,12.75
2024-02-15T22:42:53.168Z,13.23
2024-02-15T22:47:54.907Z,11.93
2024-02-15T22:52:55.679Z,12.40
2024-02-15T22:57:57.732Z,11.88
2024-02-15T23:02:58.564Z,11.60
2024-02-15T23:07:59.316Z,11.63
2024-02-15T23:13:01.956Z,12.88
2024-02-15T23:18:02.790Z,11.10
2024-02-15T23:23:03.646Z,11.63
2024-02-15T23:28:06.204Z,12.05
2024-02-15T23:33:08.614Z,10.70
2024-02-15T23:38:27.015Z,10.43
2024-02-15T23:43:29.155Z,10.45
2024-02-15T23:48:30.033Z,10.63
2024-02-15T23:53:30.808Z,10.15
2024-02-15T23:58:33.434Z,9.50
